Republic, MO (65738)

7:37 AM CDT on August 29, 2015 (GMT -0500)
KMOREPUB5 | | Change Station
CLOSE
Current Station
Personal Weather Station
Location: Republic, MO
Elevation: 1266 ft
Nearby Weather Stations

Elev 1266 ft 37.11 °N, 93.46 °W | Updated 47 seconds ago

Overcast
Overcast
66.4 °F
Feels Like 66.4 °F
N
2.7
Wind Variable Wind from SSE

Today
High -- | Low -- °F
--% Chance of Precip.
Yesterday
High -- | Low -- °F
Precip. -- in
6:41 AM 7:47 PM
Full, 100% visible
Pressure 29.98 in
Visibility 10.0 miles
Clouds Mostly Cloudy 10000 ft
Mostly Cloudy 11000 ft
Dew Point 65 °F
Humidity 94%
Rainfall 0.00 in
Snow Depth Not available.
UV 0 out of 12
Pollen 9.60 out of 12
Air Quality Not available.
Flu Activity Not available.
METAR KSGF 291152Z 16011KT 10SM BKN100 BKN110 21/16 A3001 RMK AO2 SLP150 T02060161 10222 20206 53006
Pressure 29.98 in
Visibility 10.0 miles
Clouds Mostly Cloudy 10000 ft
Mostly Cloudy 11000 ft
Dew Point 65 °F
Humidity 94%
Rainfall 0.00 in
Snow Depth Not available.
UV 0 out of 12
Pollen 9.60 out of 12
Air Quality Not available.
Flu Activity Not available.
METAR KSGF 291152Z 16011KT 10SM BKN100 BKN110 21/16 A3001 RMK AO2 SLP150 T02060161 10222 20206 53006

10-Day Weather Forecast

×

Almanac

Astronomy

Aug. 29, 2015 Rise Set
Actual Time
Civil Twilight
Nautical Twilight
Astronomical Twilight
Moon
Length of Visible Light
Length of Day
Tomorrow will be .
, % of the Moon is Illuminated

Today's Extremes

State Highs State Lows

Community

WunderPhotos

Upload Photos

1,850,676 photos uploaded!

WunderBlogs® & News

Nearby

Air Quality

  Air Quality AQ Index Pollutant
Not available.

Snow Depth

Station Depth Elevation

Earthquake Activity

City Distance Mag. Time & Date
Minimum magnitude displayed is 2.5.

Coastal Water Temperatures

Place Temperature

Stations

Nearby Weather Stations

Station Location Temp. Windchill Dew Point Humidity Wind Precip. Elev Updated Type